sensor_id;sensor_type;location;lat;lon;timestamp;P1;durP1;ratioP1;P2;durP2;ratioP2
85342;SDS011;75760;31.390;34.904;2024-01-15T14:33:07;10.23;;;4.20;;
85342;SDS011;75760;31.390;34.904;2024-01-15T14:35:33;11.15;;;3.88;;
85342;SDS011;75760;31.390;34.904;2024-01-15T14:37:58;7.30;;;3.70;;
85342;SDS011;75760;31.390;34.904;2024-01-15T14:40:27;7.97;;;3.67;;
85342;SDS011;75760;31.390;34.904;2024-01-15T14:42:53;8.00;;;3.95;;
85342;SDS011;75760;31.390;34.904;2024-01-15T14:45:20;6.13;;;3.65;;
85342;SDS011;75760;31.390;34.904;2024-01-15T14:47:45;9.13;;;4.00;;
85342;SDS011;75760;31.390;34.904;2024-01-15T14:50:11;8.20;;;3.80;;
85342;SDS011;75760;31.390;34.904;2024-01-15T14:52:37;8.23;;;3.80;;
85342;SDS011;75760;31.390;34.904;2024-01-15T14:55:04;7.20;;;4.10;;
85342;SDS011;75760;31.390;34.904;2024-01-15T14:57:31;6.33;;;4.00;;
85342;SDS011;75760;31.390;34.904;2024-01-15T14:59:56;9.27;;;4.10;;
85342;SDS011;75760;31.390;34.904;2024-01-15T15:02:23;7.73;;;4.07;;
85342;SDS011;75760;31.390;34.904;2024-01-15T15:04:51;7.25;;;4.43;;
85342;SDS011;75760;31.390;34.904;2024-01-15T15:07:16;13.00;;;6.13;;
85342;SDS011;75760;31.390;34.904;2024-01-15T15:09:42;11.85;;;7.35;;
85342;SDS011;75760;31.390;34.904;2024-01-15T15:12:08;15.57;;;8.57;;
85342;SDS011;75760;31.390;34.904;2024-01-15T15:14:33;12.82;;;6.60;;
85342;SDS011;75760;31.390;34.904;2024-01-15T15:17:05;11.80;;;7.75;;
85342;SDS011;75760;31.390;34.904;2024-01-15T15:19:31;12.07;;;6.75;;
85342;SDS011;75760;31.390;34.904;2024-01-15T15:21:57;18.27;;;9.10;;
85342;SDS011;75760;31.390;34.904;2024-01-15T15:24:23;16.38;;;7.00;;
85342;SDS011;75760;31.390;34.904;2024-01-15T15:26:49;12.07;;;7.00;;
85342;SDS011;75760;31.390;34.904;2024-01-15T15:29:14;13.07;;;7.67;;
85342;SDS011;75760;31.390;34.904;2024-01-15T15:31:42;19.58;;;8.85;;
85342;SDS011;75760;31.390;34.904;2024-01-15T15:34:08;15.35;;;8.88;;
85342;SDS011;75760;31.390;34.904;2024-01-15T15:36:33;14.93;;;9.20;;
85342;SDS011;75760;31.390;34.904;2024-01-15T15:38:59;16.88;;;10.13;;
85342;SDS011;75760;31.390;34.904;2024-01-15T17:25:16;15.30;;;6.20;;
85342;SDS011;75760;31.390;34.904;2024-01-15T17:27:42;11.57;;;4.60;;
85342;SDS011;75760;31.390;34.904;2024-01-15T17:30:08;9.20;;;4.68;;
85342;SDS011;75760;31.390;34.904;2024-01-15T17:32:34;12.85;;;4.88;;
85342;SDS011;75760;31.390;34.904;2024-01-15T17:35:00;8.83;;;4.17;;
85342;SDS011;75760;31.390;34.904;2024-01-15T17:37:26;11.77;;;4.95;;
85342;SDS011;75760;31.390;34.904;2024-01-15T17:39:52;11.40;;;4.43;;
85342;SDS011;75760;31.390;34.904;2024-01-15T17:42:18;11.77;;;4.80;;
85342;SDS011;75760;31.390;34.904;2024-01-15T17:44:44;14.40;;;5.53;;
85342;SDS011;75760;31.390;34.904;2024-01-15T17:47:10;11.73;;;5.03;;
85342;SDS011;75760;31.390;34.904;2024-01-15T17:49:37;10.77;;;5.07;;
85342;SDS011;75760;31.390;34.904;2024-01-15T17:52:03;9.90;;;5.20;;
85342;SDS011;75760;31.390;34.904;2024-01-15T17:54:29;9.37;;;4.80;;
85342;SDS011;75760;31.390;34.904;2024-01-15T17:56:58;9.15;;;5.38;;
85342;SDS011;75760;31.390;34.904;2024-01-15T17:59:24;9.43;;;4.47;;
85342;SDS011;75760;31.390;34.904;2024-01-15T18:01:50;13.73;;;4.10;;
85342;SDS011;75760;31.390;34.904;2024-01-15T18:04:17;8.70;;;4.18;;
85342;SDS011;75760;31.390;34.904;2024-01-15T18:06:46;7.70;;;4.47;;
85342;SDS011;75760;31.390;34.904;2024-01-15T18:09:15;9.98;;;4.93;;
85342;SDS011;75760;31.390;34.904;2024-01-15T18:11:44;10.05;;;5.13;;
85342;SDS011;75760;31.390;34.904;2024-01-15T18:14:13;10.55;;;5.20;;
85342;SDS011;75760;31.390;34.904;2024-01-15T18:16:40;8.85;;;4.22;;
85342;SDS011;75760;31.390;34.904;2024-01-15T18:19:06;14.50;;;4.90;;
85342;SDS011;75760;31.390;34.904;2024-01-15T18:21:36;11.70;;;4.63;;
85342;SDS011;75760;31.390;34.904;2024-01-15T18:24:02;11.32;;;4.80;;
85342;SDS011;75760;31.390;34.904;2024-01-15T18:26:29;10.85;;;4.93;;
85342;SDS011;75760;31.390;34.904;2024-01-15T18:28:54;12.93;;;5.07;;
85342;SDS011;75760;31.390;34.904;2024-01-15T18:31:20;16.05;;;5.25;;
85342;SDS011;75760;31.390;34.904;2024-01-15T18:33:47;11.67;;;4.50;;
85342;SDS011;75760;31.390;34.904;2024-01-15T18:36:12;10.85;;;4.78;;
85342;SDS011;75760;31.390;34.904;2024-01-15T18:38:39;11.10;;;4.72;;
85342;SDS011;75760;31.390;34.904;2024-01-15T18:41:05;12.83;;;4.43;;
85342;SDS011;75760;31.390;34.904;2024-01-15T18:43:30;9.55;;;4.85;;
85342;SDS011;75760;31.390;34.904;2024-01-15T18:46:05;11.75;;;4.93;;
85342;SDS011;75760;31.390;34.904;2024-01-15T18:48:34;11.15;;;5.35;;
85342;SDS011;75760;31.390;34.904;2024-01-15T18:51:00;10.57;;;4.70;;
85342;SDS011;75760;31.390;34.904;2024-01-15T18:53:25;11.50;;;5.30;;
85342;SDS011;75760;31.390;34.904;2024-01-15T18:55:51;13.13;;;5.10;;
85342;SDS011;75760;31.390;34.904;2024-01-15T18:58:18;12.80;;;5.15;;
85342;SDS011;75760;31.390;34.904;2024-01-15T19:00:44;18.43;;;5.30;;
85342;SDS011;75760;31.390;34.904;2024-01-15T19:03:09;10.97;;;5.17;;
85342;SDS011;75760;31.390;34.904;2024-01-15T19:05:37;13.27;;;6.43;;
85342;SDS011;75760;31.390;34.904;2024-01-15T19:08:04;16.45;;;8.90;;
85342;SDS011;75760;31.390;34.904;2024-01-15T19:10:29;16.40;;;8.40;;
85342;SDS011;75760;31.390;34.904;2024-01-15T19:12:55;19.77;;;9.07;;
85342;SDS011;75760;31.390;34.904;2024-01-15T19:15:23;17.88;;;7.72;;
85342;SDS011;75760;31.390;34.904;2024-01-15T19:17:49;20.43;;;8.50;;
85342;SDS011;75760;31.390;34.904;2024-01-15T19:20:15;20.25;;;11.38;;
85342;SDS011;75760;31.390;34.904;2024-01-15T19:22:41;13.40;;;9.15;;
85342;SDS011;75760;31.390;34.904;2024-01-15T19:25:07;12.60;;;7.30;;
85342;SDS011;75760;31.390;34.904;2024-01-15T19:27:33;11.90;;;6.70;;
85342;SDS011;75760;31.390;34.904;2024-01-15T19:29:59;10.27;;;5.95;;
85342;SDS011;75760;31.390;34.904;2024-01-15T19:32:25;12.30;;;5.07;;
85342;SDS011;75760;31.390;34.904;2024-01-15T19:34:50;11.13;;;4.80;;
85342;SDS011;75760;31.390;34.904;2024-01-15T19:37:16;8.27;;;5.00;;
85342;SDS011;75760;31.390;34.904;2024-01-15T19:39:42;17.43;;;5.33;;
85342;SDS011;75760;31.390;34.904;2024-01-15T19:42:07;8.43;;;4.50;;
85342;SDS011;75760;31.390;34.904;2024-01-15T19:44:33;11.97;;;5.17;;
85342;SDS011;75760;31.390;34.904;2024-01-15T19:46:59;12.00;;;4.60;;
85342;SDS011;75760;31.390;34.904;2024-01-15T19:49:24;12.37;;;4.37;;
85342;SDS011;75760;31.390;34.904;2024-01-15T19:51:50;11.87;;;5.30;;
85342;SDS011;75760;31.390;34.904;2024-01-15T19:54:15;12.13;;;5.32;;
85342;SDS011;75760;31.390;34.904;2024-01-15T19:56:43;11.13;;;5.18;;
85342;SDS011;75760;31.390;34.904;2024-01-15T19:59:09;11.20;;;5.40;;
85342;SDS011;75760;31.390;34.904;2024-01-15T20:01:34;9.20;;;5.05;;
85342;SDS011;75760;31.390;34.904;2024-01-15T20:04:00;12.63;;;5.17;;
85342;SDS011;75760;31.390;34.904;2024-01-15T20:06:27;13.85;;;5.93;;
85342;SDS011;75760;31.390;34.904;2024-01-15T20:08:52;11.48;;;5.05;;
85342;SDS011;75760;31.390;34.904;2024-01-15T20:11:19;10.10;;;5.20;;
85342;SDS011;75760;31.390;34.904;2024-01-15T20:13:45;12.13;;;5.28;;
85342;SDS011;75760;31.390;34.904;2024-01-15T20:16:11;11.02;;;4.35;;
85342;SDS011;75760;31.390;34.904;2024-01-15T20:18:38;12.67;;;5.10;;
85342;SDS011;75760;31.390;34.904;2024-01-15T20:21:04;10.48;;;5.72;;
85342;SDS011;75760;31.390;34.904;2024-01-15T20:23:31;12.43;;;4.93;;
85342;SDS011;75760;31.390;34.904;2024-01-15T20:25:58;12.02;;;5.55;;
85342;SDS011;75760;31.390;34.904;2024-01-15T20:28:24;11.23;;;5.03;;
85342;SDS011;75760;31.390;34.904;2024-01-15T20:30:50;10.48;;;5.00;;
85342;SDS011;75760;31.390;34.904;2024-01-15T20:33:15;11.33;;;5.33;;
85342;SDS011;75760;31.390;34.904;2024-01-15T20:35:41;12.07;;;5.50;;
85342;SDS011;75760;31.390;34.904;2024-01-15T20:38:06;10.60;;;5.47;;
85342;SDS011;75760;31.390;34.904;2024-01-15T20:40:32;14.37;;;6.30;;
85342;SDS011;75760;31.390;34.904;2024-01-15T20:42:58;13.90;;;5.30;;
85342;SDS011;75760;31.390;34.904;2024-01-15T20:45:24;12.80;;;5.53;;
85342;SDS011;75760;31.390;34.904;2024-01-15T20:47:50;15.23;;;5.77;;
85342;SDS011;75760;31.390;34.904;2024-01-15T20:50:15;10.27;;;5.10;;
85342;SDS011;75760;31.390;34.904;2024-01-15T20:52:41;10.23;;;4.82;;
85342;SDS011;75760;31.390;34.904;2024-01-15T20:55:07;11.23;;;4.82;;
85342;SDS011;75760;31.390;34.904;2024-01-15T20:57:33;8.70;;;4.60;;
85342;SDS011;75760;31.390;34.904;2024-01-15T20:59:59;11.20;;;4.50;;
85342;SDS011;75760;31.390;34.904;2024-01-15T21:02:24;10.43;;;4.73;;
85342;SDS011;75760;31.390;34.904;2024-01-15T21:04:50;7.18;;;4.00;;
85342;SDS011;75760;31.390;34.904;2024-01-15T21:07:16;8.20;;;3.73;;
85342;SDS011;75760;31.390;34.904;2024-01-15T21:09:41;8.83;;;3.40;;
85342;SDS011;75760;31.390;34.904;2024-01-15T21:12:07;5.70;;;3.37;;
85342;SDS011;75760;31.390;34.904;2024-01-15T21:14:33;7.27;;;3.10;;
85342;SDS011;75760;31.390;34.904;2024-01-15T21:17:02;8.07;;;2.95;;
85342;SDS011;75760;31.390;34.904;2024-01-15T21:19:28;8.50;;;2.95;;
85342;SDS011;75760;31.390;34.904;2024-01-15T21:21:54;5.60;;;3.00;;
85342;SDS011;75760;31.390;34.904;2024-01-15T21:24:20;7.03;;;3.08;;
85342;SDS011;75760;31.390;34.904;2024-01-15T21:26:51;8.43;;;3.60;;
85342;SDS011;75760;31.390;34.904;2024-01-15T21:29:18;6.60;;;3.10;;
85342;SDS011;75760;31.390;34.904;2024-01-15T21:31:43;8.25;;;3.95;;
85342;SDS011;75760;31.390;34.904;2024-01-15T21:34:09;7.27;;;3.97;;
85342;SDS011;75760;31.390;34.904;2024-01-15T21:36:37;9.57;;;3.60;;
85342;SDS011;75760;31.390;34.904;2024-01-15T21:39:03;10.97;;;4.53;;
85342;SDS011;75760;31.390;34.904;2024-01-15T21:41:29;9.20;;;4.68;;
85342;SDS011;75760;31.390;34.904;2024-01-15T21:43:54;9.20;;;4.83;;
85342;SDS011;75760;31.390;34.904;2024-01-15T21:46:22;12.55;;;5.05;;
85342;SDS011;75760;31.390;34.904;2024-01-15T21:48:49;12.10;;;5.63;;
85342;SDS011;75760;31.390;34.904;2024-01-15T21:51:16;14.80;;;5.75;;
85342;SDS011;75760;31.390;34.904;2024-01-15T21:53:42;14.43;;;6.20;;
85342;SDS011;75760;31.390;34.904;2024-01-15T21:56:07;15.48;;;6.53;;
85342;SDS011;75760;31.390;34.904;2024-01-15T21:58:33;18.20;;;7.13;;
85342;SDS011;75760;31.390;34.904;2024-01-15T22:00:58;11.43;;;6.90;;
85342;SDS011;75760;31.390;34.904;2024-01-15T22:03:24;15.97;;;6.17;;
85342;SDS011;75760;31.390;34.904;2024-01-15T22:05:50;13.43;;;6.88;;
85342;SDS011;75760;31.390;34.904;2024-01-15T22:08:15;16.87;;;8.83;;
85342;SDS011;75760;31.390;34.904;2024-01-15T22:10:41;16.92;;;7.07;;
85342;SDS011;75760;31.390;34.904;2024-01-15T22:13:07;11.87;;;6.63;;
85342;SDS011;75760;31.390;34.904;2024-01-15T22:15:32;15.07;;;6.70;;
85342;SDS011;75760;31.390;34.904;2024-01-15T22:17:58;16.83;;;7.13;;
85342;SDS011;75760;31.390;34.904;2024-01-15T22:20:24;15.48;;;7.93;;
85342;SDS011;75760;31.390;34.904;2024-01-15T22:22:49;16.80;;;7.70;;
85342;SDS011;75760;31.390;34.904;2024-01-15T22:25:15;11.53;;;6.03;;
85342;SDS011;75760;31.390;34.904;2024-01-15T22:27:41;14.02;;;5.95;;
85342;SDS011;75760;31.390;34.904;2024-01-15T22:30:06;13.07;;;6.03;;
85342;SDS011;75760;31.390;34.904;2024-01-15T22:32:32;11.60;;;5.70;;
85342;SDS011;75760;31.390;34.904;2024-01-15T22:34:58;12.17;;;6.33;;
85342;SDS011;75760;31.390;34.904;2024-01-15T22:37:24;15.27;;;7.13;;
85342;SDS011;75760;31.390;34.904;2024-01-15T22:39:49;12.15;;;6.82;;
85342;SDS011;75760;31.390;34.904;2024-01-15T22:42:15;14.47;;;6.70;;
85342;SDS011;75760;31.390;34.904;2024-01-15T22:44:42;18.65;;;7.47;;
85342;SDS011;75760;31.390;34.904;2024-01-15T22:47:07;13.20;;;7.63;;
85342;SDS011;75760;31.390;34.904;2024-01-15T22:49:33;13.38;;;7.82;;
85342;SDS011;75760;31.390;34.904;2024-01-15T22:51:58;20.07;;;9.60;;
85342;SDS011;75760;31.390;34.904;2024-01-15T22:54:24;16.70;;;10.07;;
85342;SDS011;75760;31.390;34.904;2024-01-15T22:56:50;22.75;;;10.68;;
85342;SDS011;75760;31.390;34.904;2024-01-15T22:59:15;19.60;;;10.65;;
85342;SDS011;75760;31.390;34.904;2024-01-15T23:01:44;20.47;;;10.63;;
85342;SDS011;75760;31.390;34.904;2024-01-15T23:04:12;21.20;;;10.32;;
85342;SDS011;75760;31.390;34.904;2024-01-15T23:06:39;18.88;;;10.88;;
85342;SDS011;75760;31.390;34.904;2024-01-15T23:09:05;21.35;;;11.43;;
85342;SDS011;75760;31.390;34.904;2024-01-15T23:11:31;25.80;;;13.15;;
85342;SDS011;75760;31.390;34.904;2024-01-15T23:13:57;20.30;;;12.90;;
85342;SDS011;75760;31.390;34.904;2024-01-15T23:16:23;23.10;;;13.02;;
85342;SDS011;75760;31.390;34.904;2024-01-15T23:18:48;24.83;;;13.60;;
85342;SDS011;75760;31.390;34.904;2024-01-15T23:21:14;21.37;;;12.97;;
85342;SDS011;75760;31.390;34.904;2024-01-15T23:23:40;25.67;;;13.63;;
85342;SDS011;75760;31.390;34.904;2024-01-15T23:26:05;24.05;;;13.45;;
85342;SDS011;75760;31.390;34.904;2024-01-15T23:28:31;26.83;;;14.07;;
85342;SDS011;75760;31.390;34.904;2024-01-15T23:30:57;24.63;;;15.10;;
85342;SDS011;75760;31.390;34.904;2024-01-15T23:33:23;24.60;;;14.27;;
85342;SDS011;75760;31.390;34.904;2024-01-15T23:35:48;22.92;;;14.50;;
85342;SDS011;75760;31.390;34.904;2024-01-15T23:38:15;21.67;;;12.52;;
85342;SDS011;75760;31.390;34.904;2024-01-15T23:40:41;20.90;;;11.30;;
85342;SDS011;75760;31.390;34.904;2024-01-15T23:43:06;19.80;;;11.15;;
85342;SDS011;75760;31.390;34.904;2024-01-15T23:45:32;19.13;;;10.70;;
85342;SDS011;75760;31.390;34.904;2024-01-15T23:47:58;15.15;;;9.27;;
85342;SDS011;75760;31.390;34.904;2024-01-15T23:50:23;12.77;;;7.80;;
85342;SDS011;75760;31.390;34.904;2024-01-15T23:52:49;17.40;;;8.70;;
85342;SDS011;75760;31.390;34.904;2024-01-15T23:55:14;18.77;;;9.60;;
85342;SDS011;75760;31.390;34.904;2024-01-15T23:57:41;14.23;;;8.45;;
